createdAt,value
2022-10-13T00:01:50.472Z,22.27
2022-10-13T00:04:24.242Z,21.95
2022-10-13T00:09:32.881Z,23.10
2022-10-13T00:12:07.085Z,21.80
2022-10-13T00:17:14.016Z,21.88
2022-10-13T00:19:47.629Z,21.45
2022-10-13T00:22:22.629Z,22.77
2022-10-13T00:24:56.229Z,22.67
2022-10-13T00:27:29.870Z,20.92
2022-10-13T00:30:03.427Z,22.52
2022-10-13T00:32:37.030Z,21.55
2022-10-13T00:35:12.225Z,21.50
2022-10-13T00:37:47.212Z,21.55
2022-10-13T00:40:20.812Z,22.73
2022-10-13T00:42:54.280Z,20.67
2022-10-13T00:45:30.151Z,21.42
2022-10-13T00:48:03.958Z,21.08
2022-10-13T00:53:16.448Z,19.98
2022-10-13T00:55:52.589Z,21.10
2022-10-13T00:58:31.457Z,21.45
2022-10-13T01:01:07.269Z,22.85
2022-10-13T01:03:40.893Z,22.48
2022-10-13T01:06:14.821Z,21.50
2022-10-13T01:11:44.418Z,20.42
2022-10-13T01:14:24.599Z,22.50
2022-10-13T01:17:07.307Z,22.25
2022-10-13T01:20:06.532Z,22.73
2022-10-13T01:22:50.548Z,23.30
2022-10-13T01:25:45.997Z,22.27
2022-10-13T01:28:39.425Z,21.98
2022-10-13T01:31:19.685Z,22.45
2022-10-13T01:34:00.544Z,22.08
2022-10-13T01:39:22.671Z,21.52
2022-10-13T01:42:02.310Z,22.67
2022-10-13T01:44:40.542Z,22.02
2022-10-13T01:47:17.097Z,21.17
2022-10-13T01:49:53.609Z,21.55
2022-10-13T01:52:34.551Z,22.80
2022-10-13T01:55:11.021Z,24.83
2022-10-13T01:57:46.409Z,23.92
2022-10-13T02:00:22.635Z,22.98
2022-10-13T02:03:17.707Z,22.77
2022-10-13T02:06:03.160Z,23.30
2022-10-13T02:08:52.644Z,25.05
2022-10-13T02:11:26.573Z,22.15
2022-10-13T02:16:40.329Z,21.60
2022-10-13T02:19:18.522Z,23.90
2022-10-13T02:21:54.137Z,23.85
2022-10-13T02:24:27.920Z,24.45
2022-10-13T02:27:01.586Z,23.85
2022-10-13T02:29:35.679Z,24.02
2022-10-13T02:32:09.504Z,23.45
2022-10-13T02:39:50.853Z,21.83
2022-10-13T02:42:26.477Z,22.40
2022-10-13T02:45:02.239Z,22.13
2022-10-13T02:47:35.985Z,21.55
2022-10-13T02:50:12.459Z,22.73
2022-10-13T02:52:46.141Z,22.10
2022-10-13T02:55:19.920Z,23.00
2022-10-13T02:57:54.615Z,22.23
2022-10-13T03:00:28.307Z,22.35
2022-10-13T03:03:02.003Z,22.48
2022-10-13T03:05:37.011Z,22.05
2022-10-13T03:08:10.793Z,22.50
2022-10-13T03:10:44.347Z,23.00
2022-10-13T03:13:17.992Z,22.20
2022-10-13T03:15:51.809Z,21.45
2022-10-13T03:18:26.875Z,22.27
2022-10-13T03:21:03.748Z,22.42
2022-10-13T03:23:37.516Z,21.63
2022-10-13T03:26:11.141Z,21.65
2022-10-13T03:28:44.823Z,21.60
2022-10-13T03:31:19.184Z,22.33
2022-10-13T03:33:53.553Z,21.73
2022-10-13T03:36:28.706Z,22.02
2022-10-13T03:39:02.388Z,21.73
2022-10-13T03:41:36.026Z,20.52
2022-10-13T03:44:10.731Z,21.52
2022-10-13T03:46:44.771Z,20.73
2022-10-13T03:49:18.982Z,21.00
2022-10-13T03:51:53.954Z,21.00
2022-10-13T03:54:27.629Z,22.85
2022-10-13T03:57:01.270Z,22.17
2022-10-13T03:59:36.965Z,23.33
2022-10-13T04:02:10.754Z,22.33
2022-10-13T04:04:44.344Z,22.45
2022-10-13T04:07:19.295Z,25.05
2022-10-13T04:09:52.913Z,23.08
2022-10-13T04:12:26.881Z,22.77
2022-10-13T04:15:00.803Z,21.52
2022-10-13T04:17:34.502Z,24.48
2022-10-13T04:20:09.773Z,23.83
2022-10-13T04:22:44.756Z,23.80
2022-10-13T04:25:18.482Z,24.35
2022-10-13T04:27:52.196Z,22.70
2022-10-13T04:30:26.087Z,26.75
2022-10-13T04:32:59.660Z,23.42
2022-10-13T04:35:33.339Z,22.45
2022-10-13T04:38:08.825Z,24.23
2022-10-13T04:40:42.643Z,27.15
2022-10-13T04:43:16.192Z,21.50
2022-10-13T04:45:49.749Z,20.73
2022-10-13T04:48:23.306Z,21.20
2022-10-13T04:51:01.294Z,21.27
2022-10-13T04:53:37.061Z,21.17
2022-10-13T04:56:16.511Z,21.77
2022-10-13T04:58:50.955Z,22.00
2022-10-13T05:01:26.414Z,21.70
2022-10-13T05:04:03.389Z,20.98
2022-10-13T05:07:12.469Z,22.13
2022-10-13T05:09:39.170Z,20.65
2022-10-13T05:12:17.310Z,21.55
2022-10-13T05:14:51.043Z,22.75
2022-10-13T05:17:24.588Z,22.05
2022-10-13T05:19:58.230Z,21.48
2022-10-13T05:22:31.741Z,21.40
2022-10-13T05:25:07.181Z,20.55
2022-10-13T05:27:40.729Z,20.70
2022-10-13T05:30:16.260Z,22.40
2022-10-13T05:32:53.749Z,21.23
2022-10-13T05:35:29.192Z,22.52
2022-10-13T05:38:02.761Z,21.15
2022-10-13T05:40:37.778Z,21.60
2022-10-13T05:43:12.188Z,21.30
2022-10-13T05:45:45.896Z,22.83
2022-10-13T05:48:19.542Z,22.08
2022-10-13T05:50:53.603Z,22.58
2022-10-13T05:53:29.514Z,22.60
2022-10-13T05:56:10.178Z,20.30
2022-10-13T05:58:47.232Z,21.23
2022-10-13T06:01:23.806Z,23.15
2022-10-13T06:04:01.873Z,20.92
2022-10-13T06:06:35.855Z,19.77
2022-10-13T06:09:09.862Z,18.65
2022-10-13T06:14:18.387Z,18.90
2022-10-13T06:16:52.128Z,18.17
2022-10-13T06:19:25.822Z,23.77
2022-10-13T06:22:03.375Z,27.30
2022-10-13T06:24:37.594Z,19.98
2022-10-13T06:27:16.213Z,31.02
2022-10-13T06:29:50.869Z,20.35
2022-10-13T06:32:24.490Z,19.75
2022-10-13T06:34:58.063Z,21.35
2022-10-13T06:37:32.039Z,18.45
2022-10-13T06:42:40.820Z,17.20
2022-10-13T06:45:15.812Z,16.52
2022-10-13T06:50:22.820Z,16.65
2022-10-13T06:52:56.982Z,18.85
2022-10-13T06:55:30.538Z,19.88
2022-10-13T06:58:05.580Z,17.27
2022-10-13T07:00:39.582Z,16.40
2022-10-13T07:03:13.813Z,17.45
2022-10-13T07:05:47.476Z,17.70
2022-10-13T07:08:21.263Z,16.92
2022-10-13T07:13:32.397Z,16.23
2022-10-13T07:16:10.056Z,15.50
2022-10-13T07:18:45.977Z,16.60
2022-10-13T07:21:23.359Z,14.60
2022-10-13T07:23:57.037Z,16.05
2022-10-13T07:26:32.678Z,16.30
2022-10-13T07:29:09.298Z,17.40
2022-10-13T07:31:44.532Z,14.50
2022-10-13T07:34:18.190Z,15.80
2022-10-13T07:39:25.205Z,15.18
2022-10-13T07:44:33.419Z,13.40
2022-10-13T07:47:07.077Z,15.40
2022-10-13T07:49:40.824Z,13.20
2022-10-13T07:52:20.372Z,11.35
2022-10-13T07:54:54.290Z,11.48
2022-10-13T07:57:28.240Z,11.77
2022-10-13T08:00:25.056Z,10.73
2022-10-13T08:05:32.031Z,11.23
2022-10-13T08:08:09.360Z,11.30
2022-10-13T08:10:43.128Z,11.38
2022-10-13T08:13:16.835Z,11.88
2022-10-13T08:15:51.935Z,10.55
2022-10-13T08:18:25.439Z,10.05
2022-10-13T08:21:33.137Z,9.90
2022-10-13T08:23:55.850Z,9.05
2022-10-13T08:26:32.614Z,8.02
2022-10-13T08:29:23.468Z,7.85
2022-10-13T08:31:59.137Z,8.13
2022-10-13T08:34:34.194Z,8.02
2022-10-13T08:37:07.805Z,9.02
2022-10-13T08:39:41.659Z,8.95
2022-10-13T08:42:19.945Z,8.88
2022-10-13T08:48:00.214Z,7.82
2022-10-13T08:50:42.256Z,7.78
2022-10-13T08:53:23.434Z,9.95
2022-10-13T08:55:59.592Z,7.95
2022-10-13T08:58:35.876Z,9.27
2022-10-13T09:01:16.018Z,8.45
2022-10-13T09:03:56.851Z,6.97
2022-10-13T09:06:34.386Z,7.15
2022-10-13T09:09:09.513Z,5.80
2022-10-13T09:11:46.308Z,6.53
2022-10-13T09:14:27.495Z,5.72
2022-10-13T09:17:16.712Z,5.35
2022-10-13T09:20:02.066Z,6.20
2022-10-13T09:22:37.326Z,4.97
2022-10-13T09:25:22.672Z,5.60
2022-10-13T09:27:58.147Z,5.03
2022-10-13T09:30:38.346Z,5.13
2022-10-13T09:33:23.530Z,4.32
2022-10-13T09:36:15.989Z,4.82
2022-10-13T09:39:08.506Z,4.70
2022-10-13T09:41:44.032Z,4.68
2022-10-13T09:44:22.172Z,4.82
2022-10-13T09:47:02.379Z,4.72
2022-10-13T09:49:40.101Z,4.70
2022-10-13T09:52:20.741Z,9.07
2022-10-13T09:54:57.587Z,4.10
2022-10-13T09:57:41.351Z,5.03
2022-10-13T10:00:21.604Z,3.50
2022-10-13T10:02:59.330Z,4.30
2022-10-13T10:05:44.138Z,4.13
2022-10-13T10:08:38.751Z,3.88
2022-10-13T10:11:20.777Z,3.83
2022-10-13T10:13:55.947Z,4.53
2022-10-13T10:16:36.076Z,3.97
2022-10-13T10:19:16.727Z,4.80
2022-10-13T10:21:57.396Z,4.13
2022-10-13T10:24:39.964Z,4.63
2022-10-13T10:29:56.325Z,3.63
2022-10-13T10:32:39.212Z,3.47
2022-10-13T10:35:17.406Z,3.83
2022-10-13T10:38:16.766Z,3.90
2022-10-13T10:40:58.247Z,3.47
2022-10-13T10:43:44.765Z,4.15
2022-10-13T10:46:23.075Z,3.55
2022-10-13T10:49:00.924Z,3.67
2022-10-13T10:51:37.956Z,3.63
2022-10-13T10:54:28.126Z,4.00
2022-10-13T10:57:10.108Z,4.25
2022-10-13T10:59:52.806Z,3.22
2022-10-13T11:02:45.377Z,3.70
2022-10-13T11:05:19.587Z,3.97
2022-10-13T11:08:00.931Z,3.65
2022-10-13T11:10:34.617Z,4.18
2022-10-13T11:13:19.539Z,4.63
2022-10-13T11:15:53.535Z,4.00
2022-10-13T11:19:09.293Z,4.15
2022-10-13T11:22:24.814Z,3.72
2022-10-13T11:25:01.288Z,3.65
2022-10-13T11:27:45.257Z,3.97
2022-10-13T11:30:55.718Z,3.22
2022-10-13T11:33:54.888Z,4.13
2022-10-13T11:37:03.253Z,3.60
2022-10-13T11:39:55.609Z,3.20
2022-10-13T11:42:49.502Z,3.80
2022-10-13T11:45:33.642Z,4.70
2022-10-13T11:48:42.565Z,4.10
2022-10-13T11:51:30.516Z,3.25
2022-10-13T11:54:15.438Z,3.30
2022-10-13T11:56:50.675Z,4.10
2022-10-13T11:59:27.872Z,8.85
2022-10-13T12:02:08.511Z,4.15
2022-10-13T12:04:46.808Z,3.60
2022-10-13T12:07:23.932Z,3.97
2022-10-13T12:09:59.141Z,4.32
2022-10-13T12:12:39.974Z,3.70
2022-10-13T12:15:34.009Z,3.78
2022-10-13T12:18:23.710Z,4.17
2022-10-13T12:21:00.576Z,3.10
2022-10-13T12:23:46.707Z,3.30
2022-10-13T12:26:23.015Z,3.47
2022-10-13T12:28:58.874Z,3.55
2022-10-13T12:31:42.293Z,3.63
2022-10-13T12:34:24.268Z,3.75
2022-10-13T12:37:02.218Z,3.55
2022-10-13T12:39:39.969Z,4.53
2022-10-13T12:42:15.820Z,3.30
2022-10-13T12:44:49.599Z,3.92
2022-10-13T12:47:41.169Z,3.72
2022-10-13T12:50:34.906Z,3.88
2022-10-13T12:53:17.713Z,3.65
2022-10-13T12:55:55.491Z,3.58
2022-10-13T12:58:32.478Z,3.95
2022-10-13T13:01:10.686Z,4.25
2022-10-13T13:03:45.266Z,3.58
2022-10-13T13:06:32.095Z,3.83
2022-10-13T13:09:32.139Z,4.10
2022-10-13T13:12:22.885Z,4.18
2022-10-13T13:15:03.347Z,3.58
2022-10-13T13:17:58.742Z,4.32
2022-10-13T13:20:37.196Z,3.70
2022-10-13T13:23:10.765Z,3.90
2022-10-13T13:25:45.841Z,3.65
2022-10-13T13:28:19.480Z,4.68
2022-10-13T13:30:56.578Z,5.03
2022-10-13T13:33:30.228Z,4.80
2022-10-13T13:36:06.781Z,3.75
2022-10-13T13:38:40.472Z,4.93
2022-10-13T13:41:16.580Z,4.57
2022-10-13T13:43:51.277Z,5.25
2022-10-13T13:46:27.795Z,4.80
2022-10-13T13:49:02.303Z,4.47
2022-10-13T13:51:35.982Z,4.78
2022-10-13T13:54:09.694Z,5.35
2022-10-13T13:56:44.730Z,5.07
2022-10-13T13:59:18.297Z,7.00
2022-10-13T14:01:51.976Z,4.63
2022-10-13T14:04:31.451Z,4.72
2022-10-13T14:07:05.068Z,5.95
2022-10-13T14:09:38.772Z,5.38
2022-10-13T14:12:16.187Z,7.32
2022-10-13T14:14:50.602Z,5.05
2022-10-13T14:17:29.390Z,5.43
2022-10-13T14:20:05.160Z,4.90
2022-10-13T14:22:48.220Z,5.75
2022-10-13T14:25:23.248Z,4.25
2022-10-13T14:27:58.326Z,4.53
2022-10-13T14:30:32.026Z,4.40
2022-10-13T14:33:05.968Z,5.18
2022-10-13T14:35:39.607Z,5.82
2022-10-13T14:38:14.888Z,4.32
2022-10-13T14:40:49.225Z,4.63
2022-10-13T14:46:02.043Z,5.38
2022-10-13T14:48:37.640Z,5.55
2022-10-13T14:51:21.129Z,4.68
2022-10-13T14:53:54.881Z,5.38
2022-10-13T14:56:30.777Z,6.07
2022-10-13T14:59:10.713Z,6.03
2022-10-13T15:01:48.666Z,8.60
2022-10-13T15:04:22.449Z,8.98
2022-10-13T15:06:56.122Z,10.45
2022-10-13T15:09:44.967Z,15.75
2022-10-13T15:12:24.845Z,14.15
2022-10-13T15:15:00.004Z,11.90
2022-10-13T15:17:34.542Z,10.90
2022-10-13T15:20:09.710Z,12.50
2022-10-13T15:22:43.448Z,14.25
2022-10-13T15:25:19.528Z,10.82
2022-10-13T15:27:53.092Z,9.10
2022-10-13T15:33:01.919Z,9.48
2022-10-13T15:35:38.200Z,8.80
2022-10-13T15:38:19.791Z,9.82
2022-10-13T15:40:53.336Z,8.80
2022-10-13T15:43:27.081Z,8.75
2022-10-13T15:46:04.254Z,9.60
2022-10-13T15:48:37.916Z,10.40
2022-10-13T15:53:49.257Z,7.53
2022-10-13T15:56:22.950Z,7.57
2022-10-13T16:01:42.279Z,6.93
2022-10-13T16:04:15.956Z,9.35
2022-10-13T16:09:22.907Z,7.38
2022-10-13T16:11:56.608Z,7.05
2022-10-13T16:17:06.544Z,6.22
2022-10-13T16:19:40.221Z,9.25
2022-10-13T16:22:14.398Z,24.00
2022-10-13T16:24:47.924Z,8.70
2022-10-13T16:27:22.378Z,7.65
2022-10-13T16:29:56.065Z,7.60
2022-10-13T16:32:31.503Z,7.22
2022-10-13T16:35:07.009Z,7.43
2022-10-13T16:37:40.759Z,8.80
2022-10-13T16:40:14.332Z,8.57
2022-10-13T16:42:48.168Z,9.80
2022-10-13T16:45:41.143Z,10.93
2022-10-13T16:48:17.255Z,9.80
2022-10-13T16:50:50.984Z,10.23
2022-10-13T16:53:27.634Z,9.27
2022-10-13T16:56:01.293Z,10.25
2022-10-13T16:58:37.460Z,12.30
2022-10-13T17:01:12.607Z,13.80
2022-10-13T17:03:50.256Z,14.43
2022-10-13T17:06:25.893Z,13.98
2022-10-13T17:09:04.041Z,16.15
2022-10-13T17:11:38.534Z,13.90
2022-10-13T17:14:12.822Z,13.57
2022-10-13T17:19:21.288Z,16.60
2022-10-13T17:21:54.885Z,18.25
2022-10-13T17:27:05.965Z,15.68
2022-10-13T17:29:40.866Z,13.05
2022-10-13T17:32:14.829Z,12.90
2022-10-13T17:34:49.889Z,14.45
2022-10-13T17:37:26.641Z,13.27
2022-10-13T17:40:00.318Z,12.18
2022-10-13T17:42:34.399Z,12.30
2022-10-13T17:45:09.100Z,12.55
2022-10-13T17:47:51.750Z,14.55
2022-10-13T17:50:35.904Z,13.88
2022-10-13T17:53:11.350Z,14.07
2022-10-13T17:58:32.970Z,11.82
2022-10-13T18:03:50.247Z,12.55
2022-10-13T18:06:26.627Z,12.80
2022-10-13T18:09:02.407Z,13.18
2022-10-13T18:11:36.305Z,14.00
2022-10-13T18:14:10.132Z,12.65
2022-10-13T18:16:47.120Z,14.02
2022-10-13T18:19:22.623Z,13.98
2022-10-13T18:21:57.684Z,14.77
2022-10-13T18:24:33.863Z,29.67
2022-10-13T18:27:07.333Z,15.05
2022-10-13T18:29:43.150Z,16.60
2022-10-13T18:32:16.706Z,15.30
2022-10-13T18:34:50.476Z,15.38
2022-10-13T18:39:58.688Z,15.05
2022-10-13T18:42:32.266Z,15.27
2022-10-13T18:45:08.203Z,15.80
2022-10-13T18:47:42.616Z,16.55
2022-10-13T18:52:50.911Z,18.02
2022-10-13T18:55:24.555Z,19.85
2022-10-13T18:57:58.095Z,19.02
2022-10-13T19:00:40.137Z,23.55
2022-10-13T19:03:14.094Z,22.00
2022-10-13T19:05:48.464Z,23.65
2022-10-13T19:08:24.776Z,26.67
2022-10-13T19:10:58.328Z,28.60
2022-10-13T19:13:31.961Z,19.38
2022-10-13T19:16:06.011Z,18.88
2022-10-13T19:18:39.822Z,16.27
2022-10-13T19:23:51.562Z,18.30
2022-10-13T19:26:35.286Z,19.65
2022-10-13T19:29:11.096Z,19.55
2022-10-13T19:31:51.758Z,20.67
2022-10-13T19:34:27.643Z,21.95
2022-10-13T19:37:02.052Z,24.42
2022-10-13T19:39:37.169Z,23.35
2022-10-13T19:42:13.216Z,30.85
2022-10-13T19:44:46.702Z,34.42
2022-10-13T19:47:25.547Z,31.45
2022-10-13T19:50:02.441Z,29.42
2022-10-13T19:55:31.114Z,22.17
2022-10-13T19:58:04.685Z,23.63
2022-10-13T20:00:38.606Z,23.48
2022-10-13T20:03:15.922Z,25.58
2022-10-13T20:05:52.307Z,24.85
2022-10-13T20:08:46.147Z,22.13
2022-10-13T20:11:24.495Z,18.58
2022-10-13T20:14:00.171Z,18.60
2022-10-13T20:16:33.763Z,18.73
2022-10-13T20:19:51.624Z,18.50
2022-10-13T20:22:25.538Z,19.20
2022-10-13T20:24:59.102Z,21.25
2022-10-13T20:27:39.382Z,19.63
2022-10-13T20:30:15.909Z,21.50
2022-10-13T20:33:00.127Z,24.60
2022-10-13T20:35:35.646Z,27.50
2022-10-13T20:38:13.937Z,26.80
2022-10-13T20:40:50.352Z,27.83
2022-10-13T20:43:31.237Z,23.60
2022-10-13T20:46:10.022Z,22.98
2022-10-13T20:51:42.030Z,20.13
2022-10-13T20:54:16.488Z,20.60
2022-10-13T20:56:53.075Z,19.10
2022-10-13T20:59:35.819Z,22.45
2022-10-13T21:02:11.992Z,19.38
2022-10-13T21:04:45.574Z,20.70
2022-10-13T21:07:19.465Z,21.25
2022-10-13T21:09:55.470Z,19.00
2022-10-13T21:12:32.973Z,18.42
2022-10-13T21:15:12.697Z,17.75
2022-10-13T21:17:49.645Z,20.88
2022-10-13T21:20:23.217Z,18.65
2022-10-13T21:22:56.681Z,18.52
2022-10-13T21:25:30.932Z,18.95
2022-10-13T21:28:08.732Z,20.17
2022-10-13T21:30:43.645Z,20.15
2022-10-13T21:33:21.699Z,18.58
2022-10-13T21:35:55.959Z,19.60
2022-10-13T21:38:30.477Z,19.95
2022-10-13T21:41:05.746Z,19.23
2022-10-13T21:43:39.230Z,18.65
2022-10-13T21:46:15.903Z,18.70
2022-10-13T21:48:54.488Z,19.85
2022-10-13T21:51:47.197Z,18.45
2022-10-13T21:54:20.642Z,19.02
2022-10-13T21:56:54.152Z,19.90
2022-10-13T21:59:27.898Z,20.38
2022-10-13T22:02:02.887Z,19.52
2022-10-13T22:04:36.854Z,19.95
2022-10-13T22:09:43.610Z,17.60
2022-10-13T22:12:17.241Z,19.33
2022-10-13T22:14:55.761Z,19.17
2022-10-13T22:17:31.557Z,20.73
2022-10-13T22:20:06.932Z,19.15
2022-10-13T22:22:40.464Z,18.70
2022-10-13T22:25:14.221Z,18.85
2022-10-13T22:27:47.852Z,18.77
2022-10-13T22:30:21.377Z,18.17
2022-10-13T22:32:56.340Z,19.50
2022-10-13T22:35:30.088Z,19.77
2022-10-13T22:38:03.708Z,20.52
2022-10-13T22:40:37.327Z,18.98
2022-10-13T22:43:13.387Z,19.38
2022-10-13T22:45:52.091Z,19.90
2022-10-13T22:48:27.047Z,18.50
2022-10-13T22:51:04.625Z,19.77
2022-10-13T22:53:40.021Z,18.77
2022-10-13T22:56:15.517Z,17.40
2022-10-13T22:58:57.152Z,19.20
2022-10-13T23:01:31.346Z,19.00
2022-10-13T23:04:10.003Z,18.88
2022-10-13T23:06:43.773Z,19.88
2022-10-13T23:09:17.429Z,20.05
2022-10-13T23:11:57.548Z,20.40
2022-10-13T23:14:34.353Z,18.57
2022-10-13T23:17:07.882Z,18.63
2022-10-13T23:19:42.895Z,20.25
2022-10-13T23:22:19.820Z,19.10
2022-10-13T23:24:53.620Z,19.27
2022-10-13T23:27:27.112Z,19.40
2022-10-13T23:30:02.158Z,20.25
2022-10-13T23:32:35.685Z,19.88
2022-10-13T23:35:11.006Z,20.20
2022-10-13T23:37:53.695Z,20.13
2022-10-13T23:40:27.293Z,20.25
2022-10-13T23:43:00.731Z,19.70
2022-10-13T23:45:34.342Z,20.83
2022-10-13T23:48:11.347Z,19.88
2022-10-13T23:50:48.858Z,19.92
2022-10-13T23:53:25.169Z,20.30
2022-10-13T23:55:58.774Z,20.98
2022-10-13T23:58:40.305Z,20.45
